sensor_id;sensor_type;location;lat;lon;timestamp;temperature;humidity
34522;DHT22;25561;48.888;8.736;2022-08-19T05:30:38;20.40;99.90
34522;DHT22;25561;48.888;8.736;2022-08-19T05:33:48;20.60;99.90
34522;DHT22;25561;48.888;8.736;2022-08-19T05:36:53;20.60;99.90
34522;DHT22;25561;48.888;8.736;2022-08-19T05:39:58;20.60;99.90
34522;DHT22;25561;48.888;8.736;2022-08-19T05:43:00;20.50;99.90
34522;DHT22;25561;48.888;8.736;2022-08-19T05:46:02;20.50;99.90
34522;DHT22;25561;48.888;8.736;2022-08-19T05:49:06;20.60;99.90
34522;DHT22;25561;48.888;8.736;2022-08-19T05:52:12;20.70;99.90
34522;DHT22;25561;48.888;8.736;2022-08-19T05:55:19;20.50;99.90
34522;DHT22;25561;48.888;8.736;2022-08-19T05:58:21;20.60;99.90
34522;DHT22;25561;48.888;8.736;2022-08-19T06:01:26;20.50;99.90
34522;DHT22;25561;48.888;8.736;2022-08-19T06:04:28;20.50;99.90
34522;DHT22;25561;48.888;8.736;2022-08-19T06:07:30;20.70;99.90
34522;DHT22;25561;48.888;8.736;2022-08-19T06:10:32;20.90;99.90
34522;DHT22;25561;48.888;8.736;2022-08-19T06:50:19;20.50;99.90
34522;DHT22;25561;48.888;8.736;2022-08-19T06:53:25;20.80;99.90
34522;DHT22;25561;48.888;8.736;2022-08-19T06:56:31;21.20;99.90
34522;DHT22;25561;48.888;8.736;2022-08-19T06:59:36;21.30;99.90
34522;DHT22;25561;48.888;8.736;2022-08-19T07:02:38;21.40;99.90
34522;DHT22;25561;48.888;8.736;2022-08-19T07:05:41;21.60;99.90
34522;DHT22;25561;48.888;8.736;2022-08-19T07:08:47;21.70;99.90
34522;DHT22;25561;48.888;8.736;2022-08-19T07:11:51;21.70;99.90
34522;DHT22;25561;48.888;8.736;2022-08-19T07:14:53;21.30;99.90
34522;DHT22;25561;48.888;8.736;2022-08-19T07:17:55;21.30;99.90
34522;DHT22;25561;48.888;8.736;2022-08-19T07:21:19;21.30;99.90
34522;DHT22;25561;48.888;8.736;2022-08-19T07:24:25;20.90;99.90
34522;DHT22;25561;48.888;8.736;2022-08-19T07:27:30;20.70;99.90
34522;DHT22;25561;48.888;8.736;2022-08-19T07:30:36;20.80;99.90
34522;DHT22;25561;48.888;8.736;2022-08-19T07:33:39;21.10;99.90
34522;DHT22;25561;48.888;8.736;2022-08-19T07:36:44;21.00;99.90
34522;DHT22;25561;48.888;8.736;2022-08-19T07:39:46;21.10;99.90
34522;DHT22;25561;48.888;8.736;2022-08-19T07:42:49;21.30;99.90
34522;DHT22;25561;48.888;8.736;2022-08-19T07:45:52;21.30;99.90
34522;DHT22;25561;48.888;8.736;2022-08-19T07:48:58;21.40;99.90
34522;DHT22;25561;48.888;8.736;2022-08-19T07:52:03;21.40;99.90
34522;DHT22;25561;48.888;8.736;2022-08-19T07:55:08;21.20;99.90
34522;DHT22;25561;48.888;8.736;2022-08-19T07:58:32;21.20;99.90
34522;DHT22;25561;48.888;8.736;2022-08-19T08:01:35;21.30;99.90
34522;DHT22;25561;48.888;8.736;2022-08-19T08:04:42;21.40;99.90
34522;DHT22;25561;48.888;8.736;2022-08-19T08:08:04;21.70;99.90
34522;DHT22;25561;48.888;8.736;2022-08-19T08:11:28;21.80;99.90
34522;DHT22;25561;48.888;8.736;2022-08-19T08:14:34;22.50;99.90
34522;DHT22;25561;48.888;8.736;2022-08-19T08:17:36;23.20;99.90
34522;DHT22;25561;48.888;8.736;2022-08-19T08:20:52;23.50;99.90
34522;DHT22;25561;48.888;8.736;2022-08-19T08:23:54;23.50;99.90
34522;DHT22;25561;48.888;8.736;2022-08-19T08:26:58;23.10;99.90
34522;DHT22;25561;48.888;8.736;2022-08-19T08:30:01;23.60;99.90
34522;DHT22;25561;48.888;8.736;2022-08-19T08:33:03;23.90;99.90
34522;DHT22;25561;48.888;8.736;2022-08-19T08:36:05;24.00;99.90
34522;DHT22;25561;48.888;8.736;2022-08-19T08:39:09;23.90;99.90
34522;DHT22;25561;48.888;8.736;2022-08-19T08:42:32;23.60;99.90
34522;DHT22;25561;48.888;8.736;2022-08-19T08:45:45;23.60;99.90
34522;DHT22;25561;48.888;8.736;2022-08-19T08:49:31;23.50;99.90
34522;DHT22;25561;48.888;8.736;2022-08-19T08:52:39;23.20;99.90
34522;DHT22;25561;48.888;8.736;2022-08-19T08:55:52;22.90;99.90
34522;DHT22;25561;48.888;8.736;2022-08-19T08:58:59;22.90;99.90
34522;DHT22;25561;48.888;8.736;2022-08-19T09:02:03;22.80;99.90
34522;DHT22;25561;48.888;8.736;2022-08-19T09:05:05;22.90;99.90
34522;DHT22;25561;48.888;8.736;2022-08-19T09:08:15;23.20;99.90
34522;DHT22;25561;48.888;8.736;2022-08-19T09:11:33;22.90;99.90
34522;DHT22;25561;48.888;8.736;2022-08-19T09:15:25;22.90;99.90
34522;DHT22;25561;48.888;8.736;2022-08-19T09:18:08;22.80;99.90
34522;DHT22;25561;48.888;8.736;2022-08-19T09:21:15;22.70;99.90
34522;DHT22;25561;48.888;8.736;2022-08-19T09:24:18;22.90;99.90
34522;DHT22;25561;48.888;8.736;2022-08-19T09:27:20;23.20;99.90
34522;DHT22;25561;48.888;8.736;2022-08-19T09:30:44;23.50;99.90
34522;DHT22;25561;48.888;8.736;2022-08-19T09:33:46;23.50;99.90
34522;DHT22;25561;48.888;8.736;2022-08-19T09:36:49;23.70;99.90
34522;DHT22;25561;48.888;8.736;2022-08-19T09:39:55;24.00;99.90
34522;DHT22;25561;48.888;8.736;2022-08-19T09:42:58;24.30;99.90
34522;DHT22;25561;48.888;8.736;2022-08-19T09:46:11;24.70;99.90
34522;DHT22;25561;48.888;8.736;2022-08-19T09:49:20;25.30;99.90
34522;DHT22;25561;48.888;8.736;2022-08-19T09:52:25;25.80;99.90
34522;DHT22;25561;48.888;8.736;2022-08-19T09:55:33;25.90;99.90
34522;DHT22;25561;48.888;8.736;2022-08-19T09:58:35;25.40;99.90
34522;DHT22;25561;48.888;8.736;2022-08-19T10:01:38;25.40;99.90
34522;DHT22;25561;48.888;8.736;2022-08-19T10:04:40;25.00;99.90
34522;DHT22;25561;48.888;8.736;2022-08-19T10:08:02;24.90;99.90
34522;DHT22;25561;48.888;8.736;2022-08-19T10:11:05;25.10;99.90
34522;DHT22;25561;48.888;8.736;2022-08-19T10:14:27;25.50;99.90
34522;DHT22;25561;48.888;8.736;2022-08-19T10:17:29;25.10;99.90
34522;DHT22;25561;48.888;8.736;2022-08-19T10:20:34;25.40;99.90
34522;DHT22;25561;48.888;8.736;2022-08-19T10:23:40;25.80;99.90
34522;DHT22;25561;48.888;8.736;2022-08-19T10:26:45;26.00;99.90
34522;DHT22;25561;48.888;8.736;2022-08-19T10:29:59;26.10;99.90
34522;DHT22;25561;48.888;8.736;2022-08-19T10:33:01;26.20;99.90
34522;DHT22;25561;48.888;8.736;2022-08-19T10:36:16;25.80;99.90
34522;DHT22;25561;48.888;8.736;2022-08-19T10:39:19;25.80;99.90
34522;DHT22;25561;48.888;8.736;2022-08-19T10:42:24;26.10;99.90
34522;DHT22;25561;48.888;8.736;2022-08-19T10:45:25;25.80;99.90
34522;DHT22;25561;48.888;8.736;2022-08-19T10:48:28;25.40;99.90
34522;DHT22;25561;48.888;8.736;2022-08-19T10:51:31;24.80;99.90
34522;DHT22;25561;48.888;8.736;2022-08-19T10:54:53;24.80;99.90
34522;DHT22;25561;48.888;8.736;2022-08-19T10:58:19;24.80;99.90
34522;DHT22;25561;48.888;8.736;2022-08-19T11:01:26;24.90;99.90
34522;DHT22;25561;48.888;8.736;2022-08-19T11:04:28;25.90;99.90
34522;DHT22;25561;48.888;8.736;2022-08-19T11:07:30;27.00;99.90
34522;DHT22;25561;48.888;8.736;2022-08-19T11:10:31;27.40;99.90
34522;DHT22;25561;48.888;8.736;2022-08-19T11:13:36;27.10;99.90
34522;DHT22;25561;48.888;8.736;2022-08-19T11:16:39;27.40;99.90
34522;DHT22;25561;48.888;8.736;2022-08-19T11:19:41;28.00;99.90
34522;DHT22;25561;48.888;8.736;2022-08-19T11:22:43;29.60;99.90
34522;DHT22;25561;48.888;8.736;2022-08-19T11:25:49;29.10;99.90
34522;DHT22;25561;48.888;8.736;2022-08-19T11:28:51;27.40;99.90
34522;DHT22;25561;48.888;8.736;2022-08-19T11:31:55;26.70;99.90
34522;DHT22;25561;48.888;8.736;2022-08-19T11:34:57;27.00;99.90
34522;DHT22;25561;48.888;8.736;2022-08-19T11:37:59;26.90;99.90
34522;DHT22;25561;48.888;8.736;2022-08-19T11:41:05;27.30;99.90
34522;DHT22;25561;48.888;8.736;2022-08-19T11:44:09;28.10;99.90
34522;DHT22;25561;48.888;8.736;2022-08-19T11:47:11;28.40;99.90
34522;DHT22;25561;48.888;8.736;2022-08-19T11:50:14;28.20;99.90
34522;DHT22;25561;48.888;8.736;2022-08-19T11:53:17;27.70;99.90
34522;DHT22;25561;48.888;8.736;2022-08-19T11:56:21;27.60;99.90
34522;DHT22;25561;48.888;8.736;2022-08-19T11:59:23;27.60;99.90
34522;DHT22;25561;48.888;8.736;2022-08-19T12:02:25;27.10;99.90
34522;DHT22;25561;48.888;8.736;2022-08-19T12:05:27;27.10;99.90
34522;DHT22;25561;48.888;8.736;2022-08-19T12:08:29;27.70;99.90
34522;DHT22;25561;48.888;8.736;2022-08-19T12:11:31;27.90;99.90
34522;DHT22;25561;48.888;8.736;2022-08-19T12:14:35;27.90;99.90
34522;DHT22;25561;48.888;8.736;2022-08-19T12:17:37;28.10;99.90
34522;DHT22;25561;48.888;8.736;2022-08-19T12:20:41;28.70;99.90
34522;DHT22;25561;48.888;8.736;2022-08-19T12:23:44;28.60;99.90
34522;DHT22;25561;48.888;8.736;2022-08-19T12:26:47;27.80;99.90
34522;DHT22;25561;48.888;8.736;2022-08-19T12:29:54;28.10;99.90
34522;DHT22;25561;48.888;8.736;2022-08-19T12:32:55;27.90;99.90
34522;DHT22;25561;48.888;8.736;2022-08-19T12:36:03;28.20;99.90
34522;DHT22;25561;48.888;8.736;2022-08-19T12:39:05;27.50;99.90
34522;DHT22;25561;48.888;8.736;2022-08-19T12:42:12;26.90;99.90
34522;DHT22;25561;48.888;8.736;2022-08-19T12:45:14;27.20;99.90
34522;DHT22;25561;48.888;8.736;2022-08-19T12:48:16;27.60;99.90
34522;DHT22;25561;48.888;8.736;2022-08-19T12:51:35;27.10;99.90
34522;DHT22;25561;48.888;8.736;2022-08-19T12:54:37;27.10;99.90
34522;DHT22;25561;48.888;8.736;2022-08-19T12:57:39;27.10;99.90
34522;DHT22;25561;48.888;8.736;2022-08-19T13:00:41;26.90;99.90
34522;DHT22;25561;48.888;8.736;2022-08-19T13:03:46;27.40;99.90
34522;DHT22;25561;48.888;8.736;2022-08-19T13:06:47;28.00;99.90
34522;DHT22;25561;48.888;8.736;2022-08-19T13:09:52;28.10;99.90
34522;DHT22;25561;48.888;8.736;2022-08-19T13:12:54;27.50;99.90
34522;DHT22;25561;48.888;8.736;2022-08-19T13:16:00;27.00;99.90
34522;DHT22;25561;48.888;8.736;2022-08-19T13:19:04;26.20;99.90
34522;DHT22;25561;48.888;8.736;2022-08-19T13:22:06;26.60;99.90
34522;DHT22;25561;48.888;8.736;2022-08-19T13:25:16;27.40;99.90
34522;DHT22;25561;48.888;8.736;2022-08-19T13:28:19;27.60;99.90
34522;DHT22;25561;48.888;8.736;2022-08-19T13:31:32;28.50;99.90
34522;DHT22;25561;48.888;8.736;2022-08-19T13:34:54;27.80;99.90
34522;DHT22;25561;48.888;8.736;2022-08-19T13:37:57;28.40;99.90
34522;DHT22;25561;48.888;8.736;2022-08-19T13:41:04;28.80;99.90
34522;DHT22;25561;48.888;8.736;2022-08-19T13:44:14;28.90;99.90
34522;DHT22;25561;48.888;8.736;2022-08-19T13:47:16;28.50;99.90
34522;DHT22;25561;48.888;8.736;2022-08-19T13:50:21;28.70;99.90
34522;DHT22;25561;48.888;8.736;2022-08-19T13:53:23;28.80;99.90
34522;DHT22;25561;48.888;8.736;2022-08-19T13:56:25;28.50;99.90
34522;DHT22;25561;48.888;8.736;2022-08-19T13:59:27;28.70;99.90
34522;DHT22;25561;48.888;8.736;2022-08-19T14:02:29;28.60;99.90
34522;DHT22;25561;48.888;8.736;2022-08-19T14:05:32;28.30;99.90
34522;DHT22;25561;48.888;8.736;2022-08-19T14:08:34;28.10;99.90
34522;DHT22;25561;48.888;8.736;2022-08-19T14:11:36;27.90;99.90
34522;DHT22;25561;48.888;8.736;2022-08-19T14:14:39;27.90;99.90
34522;DHT22;25561;48.888;8.736;2022-08-19T14:17:42;27.80;99.90
34522;DHT22;25561;48.888;8.736;2022-08-19T14:20:45;27.70;99.90
34522;DHT22;25561;48.888;8.736;2022-08-19T14:23:47;27.80;99.90
34522;DHT22;25561;48.888;8.736;2022-08-19T14:26:48;27.90;99.90
34522;DHT22;25561;48.888;8.736;2022-08-19T14:29:52;27.90;99.90
34522;DHT22;25561;48.888;8.736;2022-08-19T14:32:55;27.80;99.90
34522;DHT22;25561;48.888;8.736;2022-08-19T14:35:57;27.60;99.90
34522;DHT22;25561;48.888;8.736;2022-08-19T14:39:00;27.70;99.90
34522;DHT22;25561;48.888;8.736;2022-08-19T14:42:07;27.70;99.90
34522;DHT22;25561;48.888;8.736;2022-08-19T14:45:12;27.60;99.90
34522;DHT22;25561;48.888;8.736;2022-08-19T14:48:14;27.90;99.90
34522;DHT22;25561;48.888;8.736;2022-08-19T14:51:22;28.00;99.90
34522;DHT22;25561;48.888;8.736;2022-08-19T14:54:24;28.00;99.90
34522;DHT22;25561;48.888;8.736;2022-08-19T14:57:30;28.40;99.90
34522;DHT22;25561;48.888;8.736;2022-08-19T15:00:32;28.00;99.90
34522;DHT22;25561;48.888;8.736;2022-08-19T15:03:38;27.70;99.90
34522;DHT22;25561;48.888;8.736;2022-08-19T15:06:42;28.10;99.90
34522;DHT22;25561;48.888;8.736;2022-08-19T15:09:44;27.80;99.90
34522;DHT22;25561;48.888;8.736;2022-08-19T15:12:46;27.60;99.90
34522;DHT22;25561;48.888;8.736;2022-08-19T15:15:52;27.70;99.90
34522;DHT22;25561;48.888;8.736;2022-08-19T15:18:56;27.80;99.90
34522;DHT22;25561;48.888;8.736;2022-08-19T15:21:58;27.80;99.90
34522;DHT22;25561;48.888;8.736;2022-08-19T15:25:00;28.10;99.50
34522;DHT22;25561;48.888;8.736;2022-08-19T15:28:05;28.20;99.60
34522;DHT22;25561;48.888;8.736;2022-08-19T15:31:12;28.20;98.90
34522;DHT22;25561;48.888;8.736;2022-08-19T15:34:29;28.10;98.20
34522;DHT22;25561;48.888;8.736;2022-08-19T15:37:32;27.90;99.00
34522;DHT22;25561;48.888;8.736;2022-08-19T15:40:38;27.80;98.40
34522;DHT22;25561;48.888;8.736;2022-08-19T15:43:41;27.70;98.30
34522;DHT22;25561;48.888;8.736;2022-08-19T15:46:45;27.40;98.70
34522;DHT22;25561;48.888;8.736;2022-08-19T15:49:47;27.30;99.10
34522;DHT22;25561;48.888;8.736;2022-08-19T15:52:53;27.40;98.90
34522;DHT22;25561;48.888;8.736;2022-08-19T15:55:55;27.40;98.80
34522;DHT22;25561;48.888;8.736;2022-08-19T15:58:57;27.30;99.40
